Huvudsida
METAR-TAF:

METAR-TAF

Flygplatser :

Tasjkent, Uzbekistan

latitud: 41-16N, longitud: 069-16E, höjd: 489 m

Aktuellt väderrapport

Denna rapport gjordes för 49 minuter sedan, klockan 23:00 UTC
Vind 4 kt från ost/nordost
Temperatur 27°C
Fuktighet 42%
Tryck 999 hPa
Sikt 10 km eller mer
Inga moln under 1 500 m eller inga cumulonimbus

METAR: UTTT 222300Z 06004KT CAVOK 27/13 Q0999 R08R/CLRD70 NOSIG

Tid: 04:49 (23:49 UTC)

Väderprognos

Denna rapport gjordes för 49 minuter sedan, klockan 23:00 UTC
Prognos gäller från 23 kl. 00 UTC till 23 kl. 24 UTC
Vind 10 kt från ost
Sikt: 7000 m
Temporärt
från 23 kl. 09 UTC till 23 kl. 19 UTC
Vind 15 kt från nord/nordväst i byarna ända upp till 25 kt
Få moln på en höjd av 6000 ft, Cumulonimbus.

TAF: UTTT 222300Z 2300/2324 08010KT 7000 NSC TX42/2310Z TEMPO 2309/2319 33015G25KT FEW060CB

Aktuella väderrapporter och prognoser från 4000 flygplatser (METAR- och TAF-rapporter).

De tillgängliga stationerna syns som gula och röda prickar på kartan.

För musen över prickarna för att se namnen på stationerna.

Klicka sedan för att få väderrapporter och prognoser.

För att ändra kartan: Klicka på de gröna knapparna med ett svart kors på för att zooma in; den gröna knappen med ett streck på för att zooma ut; eller på de gröna pilarna för angränsande kartor.


METAR-TAF: